Time;durP1;ratioP1;P1;durP2;ratioP2;P2;SDS_P1;SDS_P2;PMS_P1;PMS_P2;Temp;Humidity;BMP_temperature;BMP_pressure;BME280_temperature;BME280_humidity;BME280_pressure;Samples;Min_cycle;Max_cycle;Signal;HPM_P1;HPM_P2
2022/05/12 00:00:28;;;;;;;1.92;1.10;;;25.70;47.90;;;;;;5019490;28;20037;-63
2022/05/12 00:02:53;;;;;;;1.40;1.05;;;25.70;47.90;;;;;;5019598;28;20569;-62
2022/05/12 00:05:20;;;;;;;2.17;1.20;;;25.70;47.90;;;;;;5017185;28;20025;-63
2022/05/12 00:07:45;;;;;;;1.98;1.10;;;25.70;47.90;;;;;;5018756;28;20122;-60
2022/05/12 00:10:14;;;;;;;1.63;1.17;;;25.70;47.90;;;;;;5018640;28;20037;-63
2022/05/12 00:12:41;;;;;;;1.75;1.20;;;25.70;47.90;;;;;;5018913;28;20033;-64
2022/05/12 00:15:14;;;;;;;1.70;1.10;;;25.70;47.90;;;;;;5018460;28;20434;-63
2022/05/12 00:17:40;;;;;;;1.85;1.30;;;25.70;47.90;;;;;;5017789;28;20048;-63
2022/05/12 00:20:06;;;;;;;2.40;1.20;;;25.70;47.90;;;;;;5018614;28;20136;-61
2022/05/12 00:22:32;;;;;;;1.67;1.20;;;25.70;47.90;;;;;;5017072;28;20068;-63
2022/05/12 00:24:57;;;;;;;1.33;1.00;;;25.70;47.90;;;;;;5016878;28;20063;-64
2022/05/12 00:27:23;;;;;;;1.92;1.15;;;25.70;48.50;;;;;;5018424;28;20030;-60
2022/05/12 00:29:49;;;;;;;1.67;1.17;;;25.70;48.00;;;;;;5019042;28;20035;-63
2022/05/12 00:32:14;;;;;;;1.67;1.08;;;25.70;47.90;;;;;;5017996;28;20040;-63
2022/05/12 00:34:40;;;;;;;1.45;1.02;;;25.70;47.90;;;;;;5016493;28;20032;-63
2022/05/12 00:37:06;;;;;;;1.95;1.23;;;25.70;47.90;;;;;;5018447;28;20972;-63
2022/05/12 00:39:31;;;;;;;1.25;1.00;;;25.70;48.00;;;;;;5017816;28;20426;-63
2022/05/12 00:41:57;;;;;;;1.10;0.90;;;25.70;47.90;;;;;;5018487;28;20025;-63
2022/05/12 00:44:22;;;;;;;1.75;1.10;;;25.60;47.90;;;;;;5020135;28;20025;-64
2022/05/12 00:46:50;;;;;;;1.23;1.10;;;25.60;47.90;;;;;;5020306;28;20115;-63
2022/05/12 00:49:23;;;;;;;2.67;1.17;;;25.60;47.90;;;;;;5015598;28;20037;-63
2022/05/12 00:52:01;;;;;;;1.75;1.10;;;25.60;48.00;;;;;;5018945;28;20070;-63
2022/05/12 00:54:41;;;;;;;2.60;1.35;;;25.60;47.90;;;;;;5018161;28;20132;-63
2022/05/12 00:57:10;;;;;;;1.75;1.10;;;25.60;47.90;;;;;;5021225;28;20081;-59
2022/05/12 00:59:37;;;;;;;1.73;1.10;;;25.60;47.90;;;;;;5019156;28;20043;-63
2022/05/12 01:02:08;;;;;;;1.40;1.20;;;25.60;47.90;;;;;;5019309;28;20400;-63
2022/05/12 01:04:35;;;;;;;1.80;1.00;;;25.60;47.90;;;;;;5017106;28;20043;-64
2022/05/12 01:07:01;;;;;;;1.40;1.10;;;25.60;47.90;;;;;;5019779;28;20029;-63
2022/05/12 01:09:30;;;;;;;1.88;1.13;;;25.50;47.80;;;;;;5016035;28;20037;-63
2022/05/12 01:11:56;;;;;;;1.67;1.20;;;25.50;47.90;;;;;;5016503;28;20558;-63
2022/05/12 01:14:21;;;;;;;1.73;1.10;;;25.60;47.90;;;;;;5019850;28;20029;-64
2022/05/12 01:16:53;;;;;;;1.58;1.10;;;25.50;47.90;;;;;;5018693;28;20461;-63
2022/05/12 01:19:27;;;;;;;1.63;1.10;;;25.50;47.80;;;;;;5017237;28;20040;-64
2022/05/12 01:21:54;;;;;;;1.80;1.30;;;25.50;47.90;;;;;;5017277;28;20033;-60
2022/05/12 01:24:22;;;;;;;1.88;1.20;;;25.50;47.90;;;;;;5018154;28;20060;-63
2022/05/12 01:26:48;;;;;;;1.50;1.02;;;25.50;47.90;;;;;;5019929;28;20034;-63
2022/05/12 01:29:14;;;;;;;2.00;1.20;;;25.50;47.90;;;;;;5018439;28;20120;-63
2022/05/12 01:31:40;;;;;;;1.65;1.10;;;25.50;47.90;;;;;;5017026;28;20536;-63
2022/05/12 01:34:08;;;;;;;1.30;1.00;;;25.50;47.90;;;;;;5016250;28;20033;-60
2022/05/12 01:36:35;;;;;;;1.42;1.10;;;25.50;47.90;;;;;;5021743;28;20036;-63
2022/05/12 01:39:01;;;;;;;2.15;1.10;;;25.50;47.90;;;;;;5021626;28;20034;-64
2022/05/12 01:41:27;;;;;;;1.50;1.10;;;25.50;47.90;;;;;;5022157;28;20025;-61
2022/05/12 01:43:52;;;;;;;1.35;1.00;;;25.50;47.90;;;;;;5022095;28;20040;-62
2022/05/12 01:46:18;;;;;;;1.70;1.10;;;25.40;47.80;;;;;;5020238;28;20110;-64
2022/05/12 01:48:44;;;;;;;1.52;1.13;;;25.50;47.90;;;;;;5020392;28;20033;-63
2022/05/12 01:51:10;;;;;;;1.20;1.00;;;25.40;47.90;;;;;;5020555;28;20516;-61
2022/05/12 01:53:36;;;;;;;1.83;1.20;;;25.40;47.90;;;;;;5024003;28;20033;-64
2022/05/12 01:56:04;;;;;;;2.08;1.10;;;25.40;47.90;;;;;;5019842;28;20492;-63
2022/05/12 01:58:30;;;;;;;2.05;1.30;;;25.40;47.90;;;;;;5022560;28;20434;-60
2022/05/12 02:00:56;;;;;;;1.40;1.00;;;25.40;47.80;;;;;;5018709;28;20039;-63
2022/05/12 02:03:21;;;;;;;1.38;1.02;;;25.40;47.90;;;;;;5023072;28;20030;-60
2022/05/12 02:05:47;;;;;;;1.63;1.00;;;25.40;48.40;;;;;;5020741;28;20041;-64
2022/05/12 02:08:15;;;;;;;2.22;1.20;;;25.40;47.90;;;;;;5020105;28;20044;-63
2022/05/12 02:10:45;;;;;;;1.10;0.90;;;25.40;47.90;;;;;;5022455;28;20065;-62
2022/05/12 02:13:11;;;;;;;1.40;1.00;;;25.40;47.90;;;;;;5021196;28;20061;-62
2022/05/12 02:15:38;;;;;;;2.60;1.15;;;25.40;47.90;;;;;;5020051;28;20029;-63
2022/05/12 02:18:06;;;;;;;2.10;1.05;;;25.40;48.40;;;;;;5020899;28;20025;-63
2022/05/12 02:20:32;;;;;;;2.42;1.23;;;25.40;47.90;;;;;;5016858;28;20127;-63
2022/05/12 02:22:58;;;;;;;2.63;1.48;;;25.40;47.90;;;;;;5018932;28;20042;-63
2022/05/12 02:25:23;;;;;;;1.33;1.02;;;25.40;47.90;;;;;;5020996;28;20565;-63
2022/05/12 02:27:51;;;;;;;1.20;1.00;;;25.40;47.90;;;;;;5022484;28;20187;-63
2022/05/12 02:30:22;;;;;;;1.42;1.10;;;25.40;47.90;;;;;;5022007;28;20116;-63
2022/05/12 02:32:48;;;;;;;1.50;1.20;;;25.40;47.90;;;;;;5020415;28;20118;-63
2022/05/12 02:35:14;;;;;;;1.55;1.17;;;25.40;47.90;;;;;;5016775;28;20394;-64
2022/05/12 02:37:40;;;;;;;1.52;1.00;;;25.40;47.90;;;;;;5021152;28;20033;-63
2022/05/12 02:40:07;;;;;;;2.72;1.40;;;25.40;47.90;;;;;;5021417;28;20029;-64
2022/05/12 02:42:32;;;;;;;1.30;1.00;;;25.30;47.80;;;;;;5020909;28;20110;-62
2022/05/12 02:44:58;;;;;;;1.67;1.10;;;25.30;47.90;;;;;;5018209;28;20519;-62
2022/05/12 02:47:23;;;;;;;1.98;1.27;;;25.30;47.90;;;;;;5021003;28;20559;-63
2022/05/12 02:49:49;;;;;;;1.45;1.10;;;25.30;47.90;;;;;;5017895;28;20033;-63
2022/05/12 02:52:15;;;;;;;1.70;1.10;;;25.30;48.40;;;;;;5019877;28;20090;-63
2022/05/12 02:54:41;;;;;;;1.40;1.05;;;25.30;47.90;;;;;;5020406;28;20045;-63
2022/05/12 02:57:06;;;;;;;1.42;1.02;;;25.30;47.90;;;;;;5021491;28;20028;-64
2022/05/12 02:59:32;;;;;;;1.38;1.10;;;25.30;47.90;;;;;;5022230;28;20437;-64
2022/05/12 03:01:59;;;;;;;1.60;1.17;;;25.30;47.90;;;;;;5020296;28;20469;-60
2022/05/12 03:04:25;;;;;;;1.13;1.00;;;25.30;47.90;;;;;;5018997;28;20407;-64
2022/05/12 03:06:51;;;;;;;1.75;1.20;;;25.20;47.80;;;;;;5019246;28;20643;-62
2022/05/12 03:09:17;;;;;;;1.40;1.10;;;25.30;47.90;;;;;;5018253;28;20959;-63
2022/05/12 03:11:43;;;;;;;1.38;1.10;;;25.30;47.90;;;;;;5019706;28;20030;-63
2022/05/12 03:14:08;;;;;;;1.98;1.10;;;25.30;47.90;;;;;;5018535;28;20029;-62
2022/05/12 03:16:34;;;;;;;1.83;1.20;;;25.30;47.90;;;;;;5020153;28;20389;-63
2022/05/12 03:19:00;;;;;;;2.25;1.30;;;25.20;47.90;;;;;;5016857;28;20080;-63
2022/05/12 03:21:26;;;;;;;1.45;1.00;;;25.20;47.80;;;;;;5020102;28;20045;-64
2022/05/12 03:23:52;;;;;;;1.95;1.20;;;25.20;47.90;;;;;;5018514;28;20068;-63
2022/05/12 03:26:18;;;;;;;2.13;1.27;;;25.20;47.90;;;;;;5021310;28;20090;-61
2022/05/12 03:28:44;;;;;;;1.30;1.08;;;25.20;47.80;;;;;;5020546;28;20029;-63
2022/05/12 03:31:10;;;;;;;1.80;1.23;;;25.20;47.90;;;;;;5019423;28;20032;-63
2022/05/12 03:33:37;;;;;;;1.27;1.10;;;25.20;47.90;;;;;;5017562;28;20139;-63
2022/05/12 03:36:03;;;;;;;1.30;1.10;;;25.20;47.90;;;;;;5016522;28;21025;-59
2022/05/12 03:38:29;;;;;;;1.73;1.20;;;25.20;47.90;;;;;;5020289;28;20033;-64
2022/05/12 03:40:55;;;;;;;1.30;1.13;;;25.20;47.90;;;;;;5018077;28;20135;-63
2022/05/12 03:46:06;;;;;;;1.33;1.23;;;25.20;48.00;;;;;;5019526;28;20701;-60
2022/05/12 03:48:35;;;;;;;1.83;1.25;;;25.20;47.90;;;;;;5018780;28;20441;-63
2022/05/12 03:51:01;;;;;;;1.70;1.27;;;25.20;48.00;;;;;;5018727;28;20037;-62
2022/05/12 03:53:27;;;;;;;1.20;1.00;;;25.10;47.90;;;;;;5020259;28;20161;-64
2022/05/12 03:55:54;;;;;;;1.35;1.15;;;25.10;47.90;;;;;;5019800;28;20044;-61
2022/05/12 03:58:19;;;;;;;1.27;1.00;;;25.20;48.00;;;;;;5018140;28;20412;-61
2022/05/12 04:00:45;;;;;;;2.10;1.35;;;25.10;48.00;;;;;;5018928;28;21194;-63
2022/05/12 04:03:11;;;;;;;2.20;1.30;;;25.10;48.40;;;;;;5019841;28;20112;-62
2022/05/12 04:05:36;;;;;;;1.92;1.20;;;25.10;48.00;;;;;;5020589;28;20074;-61
2022/05/12 04:08:02;;;;;;;1.92;1.33;;;25.10;48.00;;;;;;5018073;28;20044;-63
2022/05/12 04:10:29;;;;;;;1.70;1.30;;;25.10;47.90;;;;;;5017960;28;20078;-63
2022/05/12 04:12:54;;;;;;;1.80;1.10;;;25.10;48.00;;;;;;5019025;28;20486;-63
2022/05/12 04:15:21;;;;;;;1.83;1.27;;;25.10;47.90;;;;;;5018506;28;20052;-63
2022/05/12 04:18:02;;;;;;;1.40;1.10;;;25.10;47.90;;;;;;5020578;28;20194;-63
2022/05/12 04:20:30;;;;;;;1.90;1.20;;;25.10;48.00;;;;;;5018576;28;20051;-63
2022/05/12 04:22:56;;;;;;;1.90;1.30;;;25.10;48.00;;;;;;5018633;28;20371;-63
2022/05/12 04:25:22;;;;;;;1.30;1.10;;;25.10;48.00;;;;;;5020430;28;20024;-64
2022/05/12 04:27:48;;;;;;;1.55;1.10;;;25.10;48.00;;;;;;5018725;28;20041;-63
2022/05/12 04:30:15;;;;;;;1.42;1.10;;;25.10;48.00;;;;;;5015229;28;20033;-62
2022/05/12 04:32:41;;;;;;;1.95;1.25;;;25.10;48.20;;;;;;5019148;28;23918;-60
2022/05/12 04:35:12;;;;;;;1.92;1.20;;;25.10;48.00;;;;;;5018211;28;20124;-63
2022/05/12 04:37:40;;;;;;;1.35;1.10;;;25.10;48.00;;;;;;5016936;28;20040;-63
2022/05/12 04:40:11;;;;;;;1.38;1.20;;;25.10;48.00;;;;;;5016107;28;20061;-63
2022/05/12 04:42:37;;;;;;;1.65;1.05;;;25.10;48.00;;;;;;5018905;28;20025;-62
2022/05/12 04:45:05;;;;;;;1.52;1.15;;;25.10;48.00;;;;;;5016842;28;20206;-62
2022/05/12 04:47:32;;;;;;;1.75;1.30;;;25.00;47.90;;;;;;5016505;28;20476;-62
2022/05/12 04:49:58;;;;;;;1.40;1.20;;;25.00;47.90;;;;;;5016978;28;20159;-63
2022/05/12 04:52:25;;;;;;;2.63;1.30;;;25.00;48.00;;;;;;5018198;28;20539;-63
2022/05/12 04:54:50;;;;;;;1.75;1.40;;;25.00;48.00;;;;;;5018398;28;20035;-63
2022/05/12 04:57:16;;;;;;;2.13;1.35;;;25.00;47.90;;;;;;5018535;28;20037;-60
2022/05/12 04:59:41;;;;;;;1.63;1.30;;;25.00;47.90;;;;;;5000911;28;20022;-62
2022/05/12 05:02:07;;;;;;;2.13;1.50;;;25.00;47.90;;;;;;5018114;28;20504;-63
2022/05/12 05:04:33;;;;;;;1.70;1.20;;;25.00;47.90;;;;;;5016597;28;20049;-63
2022/05/12 05:06:58;;;;;;;1.70;1.20;;;25.00;48.00;;;;;;5020916;28;20108;-63
2022/05/12 05:09:27;;;;;;;1.65;1.30;;;25.00;47.90;;;;;;5017247;28;20033;-61
2022/05/12 05:11:53;;;;;;;1.73;1.30;;;25.00;47.90;;;;;;5024238;28;20032;-60
2022/05/12 05:14:20;;;;;;;2.00;1.45;;;25.00;47.90;;;;;;5022901;28;20780;-64
2022/05/12 05:16:46;;;;;;;2.53;1.27;;;25.00;47.90;;;;;;5023714;28;20599;-63
2022/05/12 05:19:12;;;;;;;1.52;1.23;;;25.00;47.90;;;;;;5020199;28;20067;-62
2022/05/12 05:21:38;;;;;;;1.85;1.23;;;25.00;47.90;;;;;;5023030;28;20080;-62
2022/05/12 05:24:03;;;;;;;2.63;1.40;;;25.00;48.00;;;;;;5015751;28;20129;-62
2022/05/12 05:26:29;;;;;;;1.60;1.27;;;25.00;48.10;;;;;;5020383;28;20048;-64
2022/05/12 05:28:55;;;;;;;2.10;1.20;;;25.00;48.10;;;;;;5024884;28;20128;-63
2022/05/12 05:31:20;;;;;;;2.55;1.30;;;25.10;48.00;;;;;;5021069;28;20037;-60
2022/05/12 05:33:46;;;;;;;2.33;1.40;;;25.20;47.90;;;;;;5021662;28;20029;-62
2022/05/12 05:36:12;;;;;;;1.70;1.30;;;25.30;47.80;;;;;;5021763;28;20037;-63
2022/05/12 05:38:38;;;;;;;1.63;1.30;;;25.40;47.70;;;;;;5002871;28;20033;-63
2022/05/12 05:41:03;;;;;;;1.52;1.10;;;25.40;47.60;;;;;;5023980;28;20026;-61
2022/05/12 05:43:29;;;;;;;1.63;1.27;;;25.50;47.50;;;;;;5024671;28;20420;-62
2022/05/12 05:45:55;;;;;;;1.65;1.30;;;25.60;47.40;;;;;;5021347;28;20385;-63
2022/05/12 05:48:21;;;;;;;1.60;1.20;;;25.70;47.30;;;;;;5021303;28;20445;-62
2022/05/12 05:53:36;;;;;;;2.20;1.20;;;25.70;46.90;;;;;;5022034;28;20048;-62
2022/05/12 05:56:05;;;;;;;1.92;1.40;;;25.70;47.00;;;;;;5022158;28;20044;-60
2022/05/12 05:58:31;;;;;;;1.40;1.20;;;25.70;46.90;;;;;;5023352;28;20036;-63
2022/05/12 06:00:57;;;;;;;1.42;1.17;;;25.70;46.90;;;;;;5022063;28;20057;-60
2022/05/12 06:03:24;;;;;;;1.65;1.20;;;25.70;46.90;;;;;;5022333;28;20072;-64
2022/05/12 06:05:50;;;;;;;1.92;1.23;;;25.70;46.90;;;;;;5023031;28;20061;-62
2022/05/12 06:08:18;;;;;;;1.95;1.38;;;25.70;46.90;;;;;;5021734;28;20037;-62
2022/05/12 06:10:44;;;;;;;1.65;1.13;;;25.80;46.90;;;;;;5022437;28;20403;-62
2022/05/12 06:13:11;;;;;;;1.73;1.20;;;25.80;46.90;;;;;;5024561;28;20750;-62
2022/05/12 06:15:37;;;;;;;1.73;1.10;;;25.80;46.90;;;;;;5021995;28;20044;-62
2022/05/12 06:18:13;;;;;;;1.42;1.05;;;25.80;46.80;;;;;;5022431;28;20419;-60
2022/05/12 06:20:40;;;;;;;1.70;1.20;;;25.90;46.90;;;;;;5022329;28;20029;-62
2022/05/12 06:23:05;;;;;;;1.48;1.23;;;25.90;46.80;;;;;;5022307;28;20095;-62
2022/05/12 06:25:31;;;;;;;1.33;1.13;;;25.90;46.80;;;;;;5022990;28;20096;-63
2022/05/12 06:27:57;;;;;;;2.75;1.23;;;25.90;46.80;;;;;;5022454;28;20444;-63
2022/05/12 06:30:22;;;;;;;1.67;1.13;;;25.90;46.80;;;;;;5022340;28;20037;-61
2022/05/12 06:32:48;;;;;;;1.63;1.20;;;25.90;46.70;;;;;;5021610;28;20052;-62
2022/05/12 06:35:20;;;;;;;1.60;1.30;;;26.00;46.80;;;;;;5022190;28;20056;-62
2022/05/12 06:37:46;;;;;;;1.60;1.20;;;26.00;46.80;;;;;;5017782;28;20238;-63
2022/05/12 06:40:11;;;;;;;1.65;1.30;;;26.00;46.70;;;;;;5020372;28;20036;-63
2022/05/12 06:42:39;;;;;;;1.60;1.30;;;26.00;46.60;;;;;;5023071;28;20021;-62
2022/05/12 06:45:05;;;;;;;1.70;1.30;;;26.00;47.10;;;;;;5021725;28;20381;-59
2022/05/12 06:47:31;;;;;;;1.85;1.30;;;26.00;46.60;;;;;;5022747;28;20020;-62
2022/05/12 06:50:01;;;;;;;1.42;1.10;;;26.10;46.70;;;;;;5020910;28;20033;-59
2022/05/12 06:52:27;;;;;;;1.58;1.10;;;26.10;46.60;;;;;;5023400;28;20033;-62
2022/05/12 06:54:52;;;;;;;1.88;1.27;;;26.10;46.60;;;;;;5020478;28;20307;-63
2022/05/12 06:57:23;;;;;;;1.52;1.20;;;26.10;46.60;;;;;;5023045;28;20033;-62
2022/05/12 06:59:49;;;;;;;1.35;1.10;;;26.10;46.60;;;;;;5023118;28;20028;-59
2022/05/12 07:02:15;;;;;;;1.70;1.20;;;26.10;46.50;;;;;;5020435;28;20111;-61
2022/05/12 07:04:41;;;;;;;1.50;1.20;;;26.20;46.60;;;;;;5021190;28;20120;-62
2022/05/12 07:07:07;;;;;;;1.35;1.17;;;26.20;46.60;;;;;;5021431;28;20033;-62
2022/05/12 07:09:33;;;;;;;1.27;1.15;;;26.20;46.50;;;;;;5020860;28;20515;-62
2022/05/12 07:11:59;;;;;;;1.35;1.13;;;26.20;46.50;;;;;;5018905;28;20048;-59
2022/05/12 07:14:25;;;;;;;1.70;1.27;;;26.20;46.40;;;;;;5022388;28;20044;-62
2022/05/12 07:16:50;;;;;;;1.60;1.20;;;26.20;46.50;;;;;;5024124;28;20034;-62
2022/05/12 07:19:17;;;;;;;2.22;1.20;;;26.20;46.50;;;;;;5018048;28;20565;-62
2022/05/12 07:27:16;;;;;;;1.80;1.33;;;26.30;46.50;;;;;;4998039;28;20057;-63
2022/05/12 07:29:42;;;;;;;1.67;1.20;;;26.20;46.40;;;;;;5024872;28;20047;-62
2022/05/12 07:32:08;;;;;;;1.65;1.30;;;26.30;46.40;;;;;;5021028;28;20431;-61
2022/05/12 07:34:34;;;;;;;1.35;1.00;;;26.30;46.40;;;;;;5020046;28;20037;-62
2022/05/12 07:37:00;;;;;;;1.63;1.20;;;26.30;46.90;;;;;;5022735;28;20036;-62
2022/05/12 07:39:29;;;;;;;1.83;1.20;;;26.30;46.30;;;;;;5022148;28;20124;-63
2022/05/12 07:42:00;;;;;;;2.10;1.30;;;26.30;46.40;;;;;;5024244;28;20025;-62
2022/05/12 07:44:34;;;;;;;2.45;1.20;;;26.30;46.50;;;;;;5023745;28;20115;-62
2022/05/12 07:47:04;;;;;;;2.05;1.38;;;26.30;46.50;;;;;;5022142;28;20392;-62
2022/05/12 07:49:33;;;;;;;1.63;1.10;;;26.30;46.50;;;;;;5020118;28;20036;-62
2022/05/12 07:52:00;;;;;;;1.38;1.10;;;26.30;46.50;;;;;;5021823;28;20041;-62
2022/05/12 07:54:26;;;;;;;1.55;1.20;;;26.30;46.80;;;;;;5021477;28;20614;-62
2022/05/12 07:56:51;;;;;;;1.67;1.20;;;26.30;46.60;;;;;;5023276;28;20124;-62
2022/05/12 07:59:17;;;;;;;1.70;1.30;;;26.30;46.60;;;;;;5022505;28;20497;-63
2022/05/12 08:01:43;;;;;;;1.80;1.20;;;26.30;46.40;;;;;;5020979;28;20041;-63
2022/05/12 08:04:09;;;;;;;1.63;1.20;;;26.40;46.60;;;;;;5019533;28;20423;-62
2022/05/12 08:06:35;;;;;;;1.23;1.02;;;26.40;46.50;;;;;;5020364;28;20055;-62
2022/05/12 08:09:01;;;;;;;1.80;1.40;;;26.40;46.50;;;;;;5019898;28;20029;-63
2022/05/12 08:11:27;;;;;;;1.58;1.27;;;26.40;46.50;;;;;;5020542;28;20166;-61
2022/05/12 08:13:53;;;;;;;1.67;1.30;;;26.40;46.40;;;;;;5021837;28;20461;-62
2022/05/12 08:16:20;;;;;;;2.10;1.40;;;26.40;46.40;;;;;;5022106;28;20469;-62
2022/05/12 08:18:49;;;;;;;1.52;1.20;;;26.40;46.40;;;;;;5020652;28;20108;-60
2022/05/12 08:21:16;;;;;;;1.35;1.05;;;26.40;46.40;;;;;;5020250;28;20051;-64
2022/05/12 08:23:42;;;;;;;1.80;1.30;;;26.40;46.40;;;;;;5020183;28;20038;-63
2022/05/12 08:26:09;;;;;;;1.83;1.20;;;26.40;46.40;;;;;;5022254;28;20036;-63
2022/05/12 08:28:35;;;;;;;1.50;1.20;;;26.40;46.40;;;;;;5021024;28;20035;-63
2022/05/12 08:31:01;;;;;;;2.50;1.35;;;26.40;46.50;;;;;;5020987;28;20048;-63
2022/05/12 08:33:26;;;;;;;1.65;1.10;;;26.40;46.40;;;;;;5020372;28;20037;-62
2022/05/12 08:35:52;;;;;;;1.40;1.20;;;26.40;46.40;;;;;;5017148;28;20112;-63
2022/05/12 08:38:19;;;;;;;1.55;1.20;;;26.40;46.50;;;;;;5020745;28;20025;-63
2022/05/12 08:41:16;;;;;;;1.55;1.20;;;26.50;46.40;;;;;;5019887;28;20033;-61
2022/05/12 08:43:45;;;;;;;1.52;1.13;;;26.50;46.40;;;;;;5021601;28;20817;-63
2022/05/12 08:46:23;;;;;;;1.35;1.05;;;26.50;46.60;;;;;;5019524;28;20041;-63
2022/05/12 08:49:01;;;;;;;1.17;1.00;;;26.50;46.70;;;;;;5021192;28;20158;-63
2022/05/12 08:51:32;;;;;;;1.40;1.10;;;26.50;46.90;;;;;;5019150;28;20038;-62
2022/05/12 08:54:03;;;;;;;1.70;1.27;;;26.50;46.90;;;;;;5021962;28;20378;-62
2022/05/12 08:56:29;;;;;;;1.70;1.20;;;26.50;46.70;;;;;;5021786;28;20083;-64
2022/05/12 08:58:57;;;;;;;1.45;1.10;;;26.50;46.70;;;;;;5018825;28;20021;-60
2022/05/12 09:01:44;;;;;;;1.25;1.10;;;26.50;47.40;;;;;;5020258;28;20041;-61
2022/05/12 09:04:38;;;;;;;1.92;1.30;;;26.50;47.00;;;;;;5018250;28;20033;-62
2022/05/12 09:07:15;;;;;;;1.70;1.23;;;26.50;46.90;;;;;;5021066;28;20952;-59
2022/05/12 09:09:49;;;;;;;1.90;1.30;;;26.50;46.80;;;;;;5020817;28;20114;-63
2022/05/12 09:12:34;;;;;;;1.30;1.10;;;26.60;46.80;;;;;;5018497;28;20037;-64
2022/05/12 09:15:10;;;;;;;1.77;1.30;;;26.60;46.80;;;;;;5019938;28;20113;-65
2022/05/12 09:17:57;;;;;;;1.35;1.20;;;26.60;46.80;;;;;;5021729;28;20032;-63
2022/05/12 09:20:24;;;;;;;1.70;1.40;;;26.60;46.70;;;;;;5010864;28;20347;-61
2022/05/12 09:22:51;;;;;;;1.88;1.20;;;26.60;46.80;;;;;;5020634;28;20038;-62
2022/05/12 09:25:34;;;;;;;1.58;1.10;;;26.60;46.80;;;;;;5020684;28;20038;-61
2022/05/12 09:28:34;;;;;;;1.67;1.35;;;26.60;46.90;;;;;;5019593;28;20039;-63
2022/05/12 09:31:20;;;;;;;1.95;1.45;;;26.60;46.90;;;;;;5015091;28;20069;-63
2022/05/12 09:33:48;;;;;;;1.40;1.10;;;26.60;46.80;;;;;;5018497;28;20037;-62
2022/05/12 09:36:27;;;;;;;1.77;1.30;;;26.60;46.80;;;;;;5019151;28;20025;-63
2022/05/12 09:38:57;;;;;;;1.33;1.17;;;26.60;47.40;;;;;;5020848;28;20037;-63
2022/05/12 09:41:44;;;;;;;1.95;1.30;;;26.70;46.90;;;;;;5020537;28;20036;-63
2022/05/12 09:44:20;;;;;;;1.40;1.20;;;26.60;46.80;;;;;;5021389;28;20080;-63
2022/05/12 09:47:02;;;;;;;1.48;1.20;;;26.70;46.90;;;;;;5020061;28;20132;-58
2022/05/12 09:49:44;;;;;;;1.70;1.20;;;26.70;46.90;;;;;;5017185;28;20524;-61
2022/05/12 09:52:36;;;;;;;1.48;1.20;;;26.70;47.00;;;;;;5021107;28;20033;-62
2022/05/12 09:55:22;;;;;;;1.45;1.20;;;26.70;47.00;;;;;;5020202;28;20179;-62
2022/05/12 09:58:04;;;;;;;1.63;1.20;;;26.70;46.90;;;;;;5023242;28;20041;-60
2022/05/12 10:00:30;;;;;;;1.60;1.20;;;26.70;46.90;;;;;;5021749;28;20044;-63
2022/05/12 10:09:04;;;;;;;1.67;1.20;;;26.70;46.80;;;;;;5021953;28;20043;-62
2022/05/12 10:11:47;;;;;;;1.63;1.38;;;26.70;46.80;;;;;;5023872;28;20038;-62
2022/05/12 10:14:54;;;;;;;1.70;1.30;;;26.70;46.80;;;;;;5022961;28;20044;-60
2022/05/12 10:17:19;;;;;;;1.60;1.20;;;26.70;46.80;;;;;;5021942;28;20106;-64
2022/05/12 10:19:46;;;;;;;1.58;1.23;;;26.70;46.80;;;;;;5019477;28;20033;-64
2022/05/12 10:22:16;;;;;;;1.75;1.20;;;26.70;46.80;;;;;;5023683;28;21469;-63
2022/05/12 10:25:20;;;;;;;1.23;1.10;;;26.70;46.80;;;;;;5020441;28;20117;-62
2022/05/12 10:27:55;;;;;;;1.45;1.10;;;26.80;46.80;;;;;;4971776;28;20818;-62
2022/05/12 10:30:29;;;;;;;1.70;1.30;;;26.80;46.80;;;;;;5014582;28;20155;-63
2022/05/12 10:33:03;;;;;;;1.35;1.10;;;26.80;46.80;;;;;;5023370;28;20033;-64
2022/05/12 10:35:41;;;;;;;1.45;1.13;;;26.80;46.80;;;;;;5020981;28;20025;-62
2022/05/12 10:38:09;;;;;;;1.70;1.40;;;26.80;46.80;;;;;;5022886;28;20041;-60
2022/05/12 10:41:00;;;;;;;1.60;1.20;;;26.80;46.60;;;;;;5022326;28;20032;-62
2022/05/12 10:43:38;;;;;;;1.50;1.27;;;26.80;46.90;;;;;;5023207;28;20072;-63
2022/05/12 10:46:35;;;;;;;1.90;1.23;;;26.80;46.40;;;;;;5020938;28;20153;-64
2022/05/12 10:49:10;;;;;;;1.77;1.20;;;26.80;46.30;;;;;;5019835;28;20454;-59
2022/05/12 10:52:00;;;;;;;1.70;1.23;;;26.80;46.40;;;;;;5022036;28;20033;-61
2022/05/12 10:54:43;;;;;;;1.75;1.20;;;26.80;46.40;;;;;;5021587;28;20365;-62
2022/05/12 10:57:36;;;;;;;1.75;1.20;;;26.80;46.50;;;;;;5025304;28;20081;-63
2022/05/12 11:00:26;;;;;;;1.42;1.25;;;26.80;46.50;;;;;;5022586;28;20068;-62
2022/05/12 11:02:56;;;;;;;2.20;1.42;;;26.80;46.50;;;;;;5022029;28;20192;-59
2022/05/12 11:05:22;;;;;;;1.90;1.30;;;26.80;46.60;;;;;;5018619;28;20036;-59
2022/05/12 11:08:34;;;;;;;2.42;1.52;;;26.80;46.60;;;;;;5022886;28;20029;-62
2022/05/12 11:11:06;;;;;;;2.60;1.50;;;26.80;46.60;;;;;;4981059;28;20401;-62
2022/05/12 11:14:06;;;;;;;1.98;1.30;;;26.90;46.70;;;;;;5022243;28;20089;-62
2022/05/12 11:16:44;;;;;;;1.90;1.35;;;26.80;46.60;;;;;;5019005;28;20124;-58
2022/05/12 11:19:21;;;;;;;1.65;1.20;;;26.90;46.70;;;;;;5020939;28;20817;-61
2022/05/12 11:22:04;;;;;;;3.22;1.60;;;26.90;46.70;;;;;;5020051;28;20526;-60
2022/05/12 11:24:59;;;;;;;1.83;1.38;;;26.90;46.80;;;;;;5020566;28;20580;-59
2022/05/12 11:27:37;;;;;;;1.88;1.35;;;26.90;46.80;;;;;;5021899;28;20033;-63
2022/05/12 11:30:36;;;;;;;1.80;1.10;;;26.90;47.50;;;;;;5020164;28;20026;-63
2022/05/12 11:33:26;;;;;;;1.33;1.15;;;26.80;47.40;;;;;;5022429;28;20138;-59
2022/05/12 11:35:54;;;;;;;1.88;1.30;;;26.90;47.50;;;;;;5021086;28;20034;-63
2022/05/12 11:38:45;;;;;;;1.45;1.10;;;26.90;47.50;;;;;;5023644;28;20426;-59
2022/05/12 11:41:19;;;;;;;1.35;1.10;;;26.90;47.60;;;;;;5019930;28;20044;-62
2022/05/12 11:46:48;;;;;;;1.98;1.40;;;26.90;47.50;;;;;;5019439;28;20148;-64
2022/05/12 11:49:31;;;;;;;1.70;1.20;;;27.00;47.30;;;;;;5017429;28;20130;-64
2022/05/12 11:52:21;;;;;;;2.15;1.20;;;27.00;47.30;;;;;;5018749;28;20041;-63
2022/05/12 11:55:03;;;;;;;1.63;1.20;;;27.00;47.30;;;;;;5021388;28;20120;-63
2022/05/12 11:57:35;;;;;;;2.53;1.30;;;27.00;47.30;;;;;;5020950;28;20072;-65
2022/05/12 12:00:06;;;;;;;1.80;1.20;;;27.00;47.20;;;;;;5019914;28;20016;-62
2022/05/12 12:02:31;;;;;;;2.50;1.33;;;27.00;47.30;;;;;;5019533;28;20820;-63
2022/05/12 12:05:03;;;;;;;1.88;1.30;;;27.00;47.30;;;;;;5016785;28;20040;-62
2022/05/12 12:07:31;;;;;;;1.40;1.10;;;27.00;47.30;;;;;;5016859;28;20480;-63
2022/05/12 12:10:22;;;;;;;1.80;1.30;;;27.00;47.40;;;;;;5019856;28;20441;-63
2022/05/12 12:12:50;;;;;;;1.75;1.20;;;27.00;47.40;;;;;;5020572;28;20040;-61
2022/05/12 12:15:27;;;;;;;2.17;1.48;;;27.00;47.30;;;;;;5017873;28;20116;-61
2022/05/12 12:17:54;;;;;;;1.73;1.30;;;27.00;47.10;;;;;;5020093;28;20081;-63
2022/05/12 12:20:29;;;;;;;1.83;1.20;;;27.00;47.00;;;;;;5019041;28;20145;-63
2022/05/12 12:23:21;;;;;;;2.03;1.42;;;27.00;47.00;;;;;;5019845;28;20030;-62
2022/05/12 12:25:56;;;;;;;1.55;1.17;;;27.00;47.00;;;;;;5017672;28;20518;-64
2022/05/12 12:28:30;;;;;;;1.92;1.25;;;27.00;47.10;;;;;;5019594;28;20438;-60
2022/05/12 12:30:56;;;;;;;1.98;1.30;;;27.00;47.10;;;;;;5016588;28;20472;-63
2022/05/12 12:33:24;;;;;;;2.22;1.30;;;27.00;47.10;;;;;;5018644;28;20032;-62
2022/05/12 12:36:08;;;;;;;1.25;1.10;;;27.00;47.10;;;;;;5003276;28;20178;-63
2022/05/12 12:38:48;;;;;;;1.98;1.60;;;27.00;47.10;;;;;;5017244;28;20036;-61
2022/05/12 12:41:32;;;;;;;2.38;1.40;;;27.00;47.10;;;;;;5017721;28;20033;-60
2022/05/12 12:44:29;;;;;;;1.90;1.48;;;27.00;47.10;;;;;;5020736;28;20040;-60
2022/05/12 12:47:25;;;;;;;2.30;1.52;;;27.00;47.10;;;;;;5010198;28;20512;-60
2022/05/12 12:49:54;;;;;;;2.08;1.40;;;27.00;47.20;;;;;;5018426;28;20457;-64
2022/05/12 12:52:21;;;;;;;2.78;1.38;;;27.00;47.20;;;;;;5020314;28;20071;-64
2022/05/12 12:57:49;;;;;;;1.73;1.30;;;26.90;47.20;;;;;;5022101;28;20114;-63
2022/05/12 13:00:30;;;;;;;1.60;1.30;;;26.90;47.30;;;;;;5019278;28;20373;-65
2022/05/12 13:03:05;;;;;;;1.83;1.20;;;26.90;47.80;;;;;;5019812;28;20063;-65
2022/05/12 13:05:32;;;;;;;1.85;1.20;;;26.90;47.30;;;;;;5016296;28;20034;-60
2022/05/12 13:08:00;;;;;;;2.75;1.50;;;26.80;47.30;;;;;;5019700;28;20030;-63
2022/05/12 13:10:28;;;;;;;2.97;1.40;;;26.90;47.40;;;;;;5018085;28;20499;-63
2022/05/12 13:13:05;;;;;;;1.80;1.30;;;26.80;47.30;;;;;;5020589;28;20036;-65
2022/05/12 13:15:33;;;;;;;1.98;1.38;;;26.80;47.40;;;;;;5017812;28;20033;-64
2022/05/12 13:18:02;;;;;;;1.50;1.20;;;26.80;47.40;;;;;;5020614;28;20135;-60
2022/05/12 13:20:38;;;;;;;1.50;1.10;;;26.80;47.40;;;;;;5018809;28;20034;-61
2022/05/12 13:23:07;;;;;;;1.80;1.30;;;26.80;47.40;;;;;;5022380;28;20099;-64
2022/05/12 13:25:34;;;;;;;;;;;26.80;47.40;;;;;;5018535;28;20064;-63
2022/05/12 13:28:06;;;;;;;1.33;1.20;;;26.80;47.50;;;;;;5021979;28;19920;-64